Indiana Harbor — WXN3191 — position and weather

sailwx.info

Track history (hours):
 
Tides and Currents Weather Stations Pressure Air Temp Water Temp Dewpoint Dewpoint Depression Visibility Wind Speed Wind Dir Waves Ship Positions

Indiana Harbor

Owner: American Steamship Company, WILLIAMSVILLE, NY. More information available from US FCC via Universal Licensing System and Coast Guard Vessel Documentation Center.

Last reported at 2018-Jun-18 06:13 UTC. Time now 2018-Jun-20 04:04 UTC.
Position N 45°48' W 085°47'.

Length 304 m.

Type: Ship. MMSI: 366938730.

Date/timePositionNaut miles runAvg speedWind from/ knotsBaromVisibWave heightAir tempDewpointWater temp
2018-Jun-18 06:13N 45°48' W 085°47'312.0
2018-Jun-18 06:00N 45°50' W 085°44'611.9
2018-Jun-18 05:30N 45°52' W 085°37'811.3
2018-Jun-18 04:46N 45°53' W 085°25'312.0
2018-Jun-18 04:30N 45°53' W 085°20'612.1
2018-Jun-18 04:00N 45°52' W 085°12'612.1
2018-Jun-18 03:30N 45°51' W 085°03'612.1
2018-Jun-18 03:00N 45°50' W 084°54'612.1
2018-Jun-18 02:30N 45°49' W 084°46'611.4
2018-Jun-18 02:00N 45°50' W 084°38'611.6
2018-Jun-18 01:30N 45°52' W 084°30'612.3
2018-Jun-18 00:59N 45°53' W 084°21'304 8.2
2018-Jun-16 11:51N 46°59' W 091°31'411.8
2018-Jun-16 11:30N 46°57' W 091°36'611.8
2018-Jun-16 11:00N 46°54' W 091°44'612.4
2018-Jun-16 10:31N 46°50' W 091°50'612.4
2018-Jun-16 10:00N 46°45' W 091°57'4 8.5
2018-Jun-16 09:31N 46°42' W 092°01'0 0.7
2018-Jun-16 09:01N 46°42' W 092°01'0 0.0
2018-Jun-16 08:31N 46°42' W 092°01'0 0.0
2018-Jun-16 08:00N 46°42' W 092°01'0 0.0
2018-Jun-16 07:31N 46°42' W 092°01'0 0.0
2018-Jun-16 07:00N 46°42' W 092°01'0 0.0
2018-Jun-16 06:30N 46°42' W 092°01'0 0.0
2018-Jun-16 06:01N 46°42' W 092°01'0 0.0
2018-Jun-16 05:30N 46°42' W 092°01'0 0.0
2018-Jun-16 05:01N 46°42' W 092°01'0 0.0
2018-Jun-16 04:31N 46°42' W 092°01'0 0.0
2018-Jun-16 04:01N 46°42' W 092°01'0 0.0
2018-Jun-16 03:30N 46°42' W 092°01'0 0.0
2018-Jun-16 03:01N 46°42' W 092°01'0 0.0
2018-Jun-16 02:30N 46°42' W 092°01'0 0.0
2018-Jun-16 02:01N 46°42' W 092°01'0 0.0
2018-Jun-16 01:30N 46°42' W 092°01'0 0.0
2018-Jun-16 01:01N 46°42' W 092°01'0 0.0
2018-Jun-16 00:30N 46°42' W 092°01'0 0.0
2018-Jun-16 00:00N 46°42' W 092°01'0 0.0
2018-Jun-15 23:31N 46°42' W 092°01'0 0.0
2018-Jun-15 23:00N 46°42' W 092°01'0 0.0
2018-Jun-15 22:31N 46°42' W 092°01'0 0.0
2018-Jun-15 22:01N 46°42' W 092°01'0 0.0
2018-Jun-15 21:30N 46°42' W 092°01'0 0.0
2018-Jun-15 21:01N 46°42' W 092°01'0 0.0
2018-Jun-15 20:30N 46°42' W 092°01'0 0.0
2018-Jun-15 20:00N 46°42' W 092°01'0 0.0
2018-Jun-15 19:31N 46°42' W 092°01'0 0.0
2018-Jun-15 19:01N 46°42' W 092°01'0 0.0
2018-Jun-15 18:31N 46°42' W 092°01'0 0.0
2018-Jun-15 18:00N 46°42' W 092°01'0 0.0
2018-Jun-15 17:30N 46°42' W 092°01'0 0.9
2018-Jun-15 17:00N 46°42' W 092°01'2 3.7
2018-Jun-15 16:31N 46°43' W 091°59'2 3.1
2018-Jun-15 16:00N 46°44' W 091°57'3 5.2
2018-Jun-15 15:30N 46°45' W 091°53'5 9.0
2018-Jun-15 15:00N 46°47' W 091°47'612.6
2018-Jun-15 14:30N 46°50' W 091°39'713.3
2018-Jun-15 14:00N 46°53' W 091°30'311 9.6
2018-Jun-14 05:32N 45°51' W 084°08'112.4
2018-Jun-14 05:30N 45°51' W 084°09'713.5
2018-Jun-14 05:00N 45°51' W 084°19'713.8
2018-Jun-14 04:30N 45°51' W 084°29'612.8
2018-Jun-14 04:00N 45°50' W 084°38'610.0
2018-Jun-14 03:26N 45°49' W 084°46'512.0
2018-Jun-14 03:00N 45°49' W 084°53'713.4
2018-Jun-14 02:30N 45°50' W 085°03'5 9.5
2018-Jun-14 02:00N 45°48' W 085°09'611.6
2018-Jun-14 01:30N 45°42' W 085°12'613.3
2018-Jun-14 01:00N 45°37' W 085°18'713.2
2018-Jun-14 00:30N 45°32' W 085°24'713.1
2018-Jun-14 00:00N 45°27' W 085°29'713.3
2018-Jun-13 23:30N 45°21' W 085°35'713.2
2018-Jun-13 23:01N 45°16' W 085°41'713.2
2018-Jun-13 22:30N 45°11' W 085°46'713.3
2018-Jun-13 22:00N 45°05' W 085°52'712.9
2018-Jun-13 21:28N 45°00' W 085°58'1938.9
2018-Jun-13 21:00N 44°48' W 086°18'717.1 310 / 51012.827.0 18.9
2018-Jun-13 20:33N 44°54' W 086°13'112.9
2018-Jun-13 20:30N 44°54' W 086°13'15713.6
2018-Jun-13 09:00N 42°24' W 087°18'200 4.8 240 / 161009.9 0.0 17.7
2018-Jun-11 15:13N 45°37' W 086°02'312.2
2018-Jun-11 14:57N 45°39' W 085°60'712.2
2018-Jun-11 14:21N 45°45' W 085°54'412.0
2018-Jun-11 13:59N 45°48' W 085°49'612.2
2018-Jun-11 13:31N 45°51' W 085°41'612.1
2018-Jun-11 13:01N 45°54' W 085°34'611.9
2018-Jun-11 12:30N 45°53' W 085°25'612.2
2018-Jun-11 12:01N 45°53' W 085°17'612.1
2018-Jun-11 11:30N 45°52' W 085°08'612.2
2018-Jun-11 11:01N 45°51' W 084°59'612.2
2018-Jun-11 10:31N 45°50' W 084°51'611.8
2018-Jun-11 10:01N 45°49' W 084°42'611.5
2018-Jun-11 09:31N 45°51' W 084°35'612.4
2018-Jun-11 09:00N 45°52' W 084°26'612.4
2018-Jun-11 08:31N 45°53' W 084°17'612.5
2018-Jun-11 08:00N 45°54' W 084°08'612.5
2018-Jun-11 07:31N 45°55' W 083°59'510.0
2018-Jun-11 07:00N 45°58' W 083°54'174 7.9
2018-Jun-10 09:00N 47°30' W 087°30'14311.9 120 / 331014.827.0 12.8
2018-Jun-09 21:00N 47°18' W 091°00'196 5.4 060 / 201015.327.0 5.6
2018-Jun-08 09:00N 47°06' W 086°12'   270 / 111019.110.8 5.2
Track history (hours):
 
Tides and Currents Weather Stations Pressure Air Temp Water Temp Dewpoint Dewpoint Depression Visibility Wind Speed Wind Dir Waves Ship Positions

Indiana Harbor

Owner: American Steamship Company, WILLIAMSVILLE, NY. More information available from US FCC via Universal Licensing System and Coast Guard Vessel Documentation Center.

Last reported at 2018-Jun-18 06:13 UTC. Time now 2018-Jun-20 04:04 UTC.
Position N 45°48' W 085°47'.

Length 304 m.

Type: Ship. MMSI: 366938730.

Date/timePositionNaut miles runAvg speedWind from/ knotsBaromVisibWave heightAir tempDewpointWater temp
2018-Jun-18 06:13N 45°48' W 085°47'312.0
2018-Jun-18 06:00N 45°50' W 085°44'611.9
2018-Jun-18 05:30N 45°52' W 085°37'811.3
2018-Jun-18 04:46N 45°53' W 085°25'312.0
2018-Jun-18 04:30N 45°53' W 085°20'612.1
2018-Jun-18 04:00N 45°52' W 085°12'612.1
2018-Jun-18 03:30N 45°51' W 085°03'612.1
2018-Jun-18 03:00N 45°50' W 084°54'612.1
2018-Jun-18 02:30N 45°49' W 084°46'611.4
2018-Jun-18 02:00N 45°50' W 084°38'611.6
2018-Jun-18 01:30N 45°52' W 084°30'612.3
2018-Jun-18 00:59N 45°53' W 084°21'304 8.2
2018-Jun-16 11:51N 46°59' W 091°31'411.8
2018-Jun-16 11:30N 46°57' W 091°36'611.8
2018-Jun-16 11:00N 46°54' W 091°44'612.4
2018-Jun-16 10:31N 46°50' W 091°50'612.4
2018-Jun-16 10:00N 46°45' W 091°57'4 8.5
2018-Jun-16 09:31N 46°42' W 092°01'0 0.7
2018-Jun-16 09:01N 46°42' W 092°01'0 0.0
2018-Jun-16 08:31N 46°42' W 092°01'0 0.0
2018-Jun-16 08:00N 46°42' W 092°01'0 0.0
2018-Jun-16 07:31N 46°42' W 092°01'0 0.0
2018-Jun-16 07:00N 46°42' W 092°01'0 0.0
2018-Jun-16 06:30N 46°42' W 092°01'0 0.0
2018-Jun-16 06:01N 46°42' W 092°01'0 0.0
2018-Jun-16 05:30N 46°42' W 092°01'0 0.0
2018-Jun-16 05:01N 46°42' W 092°01'0 0.0
2018-Jun-16 04:31N 46°42' W 092°01'0 0.0
2018-Jun-16 04:01N 46°42' W 092°01'0 0.0
2018-Jun-16 03:30N 46°42' W 092°01'0 0.0
2018-Jun-16 03:01N 46°42' W 092°01'0 0.0
2018-Jun-16 02:30N 46°42' W 092°01'0 0.0
2018-Jun-16 02:01N 46°42' W 092°01'0 0.0
2018-Jun-16 01:30N 46°42' W 092°01'0 0.0
2018-Jun-16 01:01N 46°42' W 092°01'0 0.0
2018-Jun-16 00:30N 46°42' W 092°01'0 0.0
2018-Jun-16 00:00N 46°42' W 092°01'0 0.0
2018-Jun-15 23:31N 46°42' W 092°01'0 0.0
2018-Jun-15 23:00N 46°42' W 092°01'0 0.0
2018-Jun-15 22:31N 46°42' W 092°01'0 0.0
2018-Jun-15 22:01N 46°42' W 092°01'0 0.0
2018-Jun-15 21:30N 46°42' W 092°01'0 0.0
2018-Jun-15 21:01N 46°42' W 092°01'0 0.0
2018-Jun-15 20:30N 46°42' W 092°01'0 0.0
2018-Jun-15 20:00N 46°42' W 092°01'0 0.0
2018-Jun-15 19:31N 46°42' W 092°01'0 0.0
2018-Jun-15 19:01N 46°42' W 092°01'0 0.0
2018-Jun-15 18:31N 46°42' W 092°01'0 0.0
2018-Jun-15 18:00N 46°42' W 092°01'0 0.0
2018-Jun-15 17:30N 46°42' W 092°01'0 0.9
2018-Jun-15 17:00N 46°42' W 092°01'2 3.7
2018-Jun-15 16:31N 46°43' W 091°59'2 3.1
2018-Jun-15 16:00N 46°44' W 091°57'3 5.2
2018-Jun-15 15:30N 46°45' W 091°53'5 9.0
2018-Jun-15 15:00N 46°47' W 091°47'612.6
2018-Jun-15 14:30N 46°50' W 091°39'713.3
2018-Jun-15 14:00N 46°53' W 091°30'311 9.6
2018-Jun-14 05:32N 45°51' W 084°08'112.4
2018-Jun-14 05:30N 45°51' W 084°09'713.5
2018-Jun-14 05:00N 45°51' W 084°19'713.8
2018-Jun-14 04:30N 45°51' W 084°29'612.8
2018-Jun-14 04:00N 45°50' W 084°38'610.0
2018-Jun-14 03:26N 45°49' W 084°46'512.0
2018-Jun-14 03:00N 45°49' W 084°53'713.4
2018-Jun-14 02:30N 45°50' W 085°03'5 9.5
2018-Jun-14 02:00N 45°48' W 085°09'611.6
2018-Jun-14 01:30N 45°42' W 085°12'613.3
2018-Jun-14 01:00N 45°37' W 085°18'713.2
2018-Jun-14 00:30N 45°32' W 085°24'713.1
2018-Jun-14 00:00N 45°27' W 085°29'713.3
2018-Jun-13 23:30N 45°21' W 085°35'713.2
2018-Jun-13 23:01N 45°16' W 085°41'713.2
2018-Jun-13 22:30N 45°11' W 085°46'713.3
2018-Jun-13 22:00N 45°05' W 085°52'712.9
2018-Jun-13 21:28N 45°00' W 085°58'1938.9
2018-Jun-13 21:00N 44°48' W 086°18'717.1 310 / 51012.827.0 18.9
2018-Jun-13 20:33N 44°54' W 086°13'112.9
2018-Jun-13 20:30N 44°54' W 086°13'15713.6
2018-Jun-13 09:00N 42°24' W 087°18'200 4.8 240 / 161009.9 0.0 17.7
2018-Jun-11 15:13N 45°37' W 086°02'312.2
2018-Jun-11 14:57N 45°39' W 085°60'712.2
2018-Jun-11 14:21N 45°45' W 085°54'412.0
2018-Jun-11 13:59N 45°48' W 085°49'612.2
2018-Jun-11 13:31N 45°51' W 085°41'612.1
2018-Jun-11 13:01N 45°54' W 085°34'611.9
2018-Jun-11 12:30N 45°53' W 085°25'612.2
2018-Jun-11 12:01N 45°53' W 085°17'612.1
2018-Jun-11 11:30N 45°52' W 085°08'612.2
2018-Jun-11 11:01N 45°51' W 084°59'612.2
2018-Jun-11 10:31N 45°50' W 084°51'611.8
2018-Jun-11 10:01N 45°49' W 084°42'611.5
2018-Jun-11 09:31N 45°51' W 084°35'612.4
2018-Jun-11 09:00N 45°52' W 084°26'612.4
2018-Jun-11 08:31N 45°53' W 084°17'612.5
2018-Jun-11 08:00N 45°54' W 084°08'612.5
2018-Jun-11 07:31N 45°55' W 083°59'510.0
2018-Jun-11 07:00N 45°58' W 083°54'174 7.9
2018-Jun-10 09:00N 47°30' W 087°30'14311.9 120 / 331014.827.0 12.8
2018-Jun-09 21:00N 47°18' W 091°00'196 5.4 060 / 201015.327.0 5.6
2018-Jun-08 09:00N 47°06' W 086°12'   270 / 111019.110.8 5.2

Dump ship's entire track history